sensor_id;sensor_type;location;lat;lon;timestamp;temperature;humidity
41985;DHT22;28319;48.116;10.818;2024-02-15T00:01:13;8.90;99.90
41985;DHT22;28319;48.116;10.818;2024-02-15T00:06:17;8.80;99.90
41985;DHT22;28319;48.116;10.818;2024-02-15T00:11:18;8.60;99.90
41985;DHT22;28319;48.116;10.818;2024-02-15T00:16:20;8.60;99.90
41985;DHT22;28319;48.116;10.818;2024-02-15T00:21:24;8.60;99.90
41985;DHT22;28319;48.116;10.818;2024-02-15T00:26:26;8.50;99.90
41985;DHT22;28319;48.116;10.818;2024-02-15T00:31:28;8.40;99.90
41985;DHT22;28319;48.116;10.818;2024-02-15T00:36:31;8.20;99.90
41985;DHT22;28319;48.116;10.818;2024-02-15T00:41:33;8.10;99.90
41985;DHT22;28319;48.116;10.818;2024-02-15T00:46:35;8.00;99.90
41985;DHT22;28319;48.116;10.818;2024-02-15T00:51:39;8.00;99.90
41985;DHT22;28319;48.116;10.818;2024-02-15T00:56:41;8.10;99.90
41985;DHT22;28319;48.116;10.818;2024-02-15T01:01:43;8.10;99.90
41985;DHT22;28319;48.116;10.818;2024-02-15T01:06:46;8.00;99.90
41985;DHT22;28319;48.116;10.818;2024-02-15T01:11:48;8.10;99.90
41985;DHT22;28319;48.116;10.818;2024-02-15T01:16:50;8.10;99.90
41985;DHT22;28319;48.116;10.818;2024-02-15T01:21:53;8.00;99.90
41985;DHT22;28319;48.116;10.818;2024-02-15T01:26:55;8.00;99.90
41985;DHT22;28319;48.116;10.818;2024-02-15T01:31:57;8.00;99.90
41985;DHT22;28319;48.116;10.818;2024-02-15T01:37:00;8.00;99.90
41985;DHT22;28319;48.116;10.818;2024-02-15T01:42:03;8.00;99.90
41985;DHT22;28319;48.116;10.818;2024-02-15T01:47:06;8.00;99.90
41985;DHT22;28319;48.116;10.818;2024-02-15T01:52:10;8.00;99.90
41985;DHT22;28319;48.116;10.818;2024-02-15T01:57:14;8.10;99.90
41985;DHT22;28319;48.116;10.818;2024-02-15T02:02:19;8.10;99.90
41985;DHT22;28319;48.116;10.818;2024-02-15T02:07:23;8.10;99.90
41985;DHT22;28319;48.116;10.818;2024-02-15T02:12:25;8.10;99.90
41985;DHT22;28319;48.116;10.818;2024-02-15T02:17:28;8.20;99.90
41985;DHT22;28319;48.116;10.818;2024-02-15T02:22:31;8.10;99.90
41985;DHT22;28319;48.116;10.818;2024-02-15T02:27:35;8.00;99.90
41985;DHT22;28319;48.116;10.818;2024-02-15T02:32:37;8.00;99.90
41985;DHT22;28319;48.116;10.818;2024-02-15T02:37:39;8.20;99.90
41985;DHT22;28319;48.116;10.818;2024-02-15T02:42:50;8.10;99.90
41985;DHT22;28319;48.116;10.818;2024-02-15T02:47:53;7.90;99.90
41985;DHT22;28319;48.116;10.818;2024-02-15T02:52:55;7.80;99.90
41985;DHT22;28319;48.116;10.818;2024-02-15T02:57:58;7.80;99.90
41985;DHT22;28319;48.116;10.818;2024-02-15T03:03:00;7.70;99.90
41985;DHT22;28319;48.116;10.818;2024-02-15T03:08:02;7.70;99.90
41985;DHT22;28319;48.116;10.818;2024-02-15T03:13:06;7.70;99.90
41985;DHT22;28319;48.116;10.818;2024-02-15T03:18:08;7.60;99.90
41985;DHT22;28319;48.116;10.818;2024-02-15T03:23:10;7.60;99.90
41985;DHT22;28319;48.116;10.818;2024-02-15T03:28:14;7.50;99.90
41985;DHT22;28319;48.116;10.818;2024-02-15T03:33:16;7.40;99.90
41985;DHT22;28319;48.116;10.818;2024-02-15T03:38:18;7.40;99.90
41985;DHT22;28319;48.116;10.818;2024-02-15T03:43:21;7.30;99.90
41985;DHT22;28319;48.116;10.818;2024-02-15T03:48:24;7.10;99.90
41985;DHT22;28319;48.116;10.818;2024-02-15T03:53:25;7.00;99.90
41985;DHT22;28319;48.116;10.818;2024-02-15T03:58:32;6.90;99.90
41985;DHT22;28319;48.116;10.818;2024-02-15T04:03:34;6.90;99.90
41985;DHT22;28319;48.116;10.818;2024-02-15T04:08:36;6.80;99.90
41985;DHT22;28319;48.116;10.818;2024-02-15T04:13:40;6.70;99.90
41985;DHT22;28319;48.116;10.818;2024-02-15T04:18:43;6.70;99.90
41985;DHT22;28319;48.116;10.818;2024-02-15T04:23:45;6.70;99.90
41985;DHT22;28319;48.116;10.818;2024-02-15T04:28:49;6.70;99.90
41985;DHT22;28319;48.116;10.818;2024-02-15T04:33:53;6.60;99.90
41985;DHT22;28319;48.116;10.818;2024-02-15T04:38:55;6.60;99.90
41985;DHT22;28319;48.116;10.818;2024-02-15T04:43:58;6.50;99.90
41985;DHT22;28319;48.116;10.818;2024-02-15T04:49:00;6.40;99.90
41985;DHT22;28319;48.116;10.818;2024-02-15T04:54:03;6.30;99.90
41985;DHT22;28319;48.116;10.818;2024-02-15T04:59:09;6.20;99.90
41985;DHT22;28319;48.116;10.818;2024-02-15T05:04:12;6.20;99.90
41985;DHT22;28319;48.116;10.818;2024-02-15T05:09:14;6.10;99.90
41985;DHT22;28319;48.116;10.818;2024-02-15T05:14:20;5.80;99.90
41985;DHT22;28319;48.116;10.818;2024-02-15T05:19:23;5.80;99.90
41985;DHT22;28319;48.116;10.818;2024-02-15T05:24:25;5.80;99.90
41985;DHT22;28319;48.116;10.818;2024-02-15T05:29:28;5.70;99.90
41985;DHT22;28319;48.116;10.818;2024-02-15T05:34:34;5.70;99.90
41985;DHT22;28319;48.116;10.818;2024-02-15T05:39:41;5.70;99.90
41985;DHT22;28319;48.116;10.818;2024-02-15T05:44:44;5.70;99.90
41985;DHT22;28319;48.116;10.818;2024-02-15T05:49:46;5.50;99.90
41985;DHT22;28319;48.116;10.818;2024-02-15T05:54:48;5.40;99.90
41985;DHT22;28319;48.116;10.818;2024-02-15T05:59:53;5.40;99.90
41985;DHT22;28319;48.116;10.818;2024-02-15T06:04:55;5.30;99.90
41985;DHT22;28319;48.116;10.818;2024-02-15T06:10:02;5.30;99.90
41985;DHT22;28319;48.116;10.818;2024-02-15T06:15:06;5.30;99.90
41985;DHT22;28319;48.116;10.818;2024-02-15T06:20:15;5.30;99.90
41985;DHT22;28319;48.116;10.818;2024-02-15T06:25:18;5.20;99.90
41985;DHT22;28319;48.116;10.818;2024-02-15T06:30:23;5.10;99.90
41985;DHT22;28319;48.116;10.818;2024-02-15T06:35:42;5.10;99.90
41985;DHT22;28319;48.116;10.818;2024-02-15T06:41:02;5.20;99.90
41985;DHT22;28319;48.116;10.818;2024-02-15T06:46:07;5.00;99.90
41985;DHT22;28319;48.116;10.818;2024-02-15T06:51:12;5.00;99.90
41985;DHT22;28319;48.116;10.818;2024-02-15T06:56:15;5.00;99.90
41985;DHT22;28319;48.116;10.818;2024-02-15T07:01:18;5.10;99.90
41985;DHT22;28319;48.116;10.818;2024-02-15T07:06:20;5.10;99.90
41985;DHT22;28319;48.116;10.818;2024-02-15T07:11:22;5.10;99.90
41985;DHT22;28319;48.116;10.818;2024-02-15T07:16:26;5.10;99.90
41985;DHT22;28319;48.116;10.818;2024-02-15T07:21:28;5.20;99.90
41985;DHT22;28319;48.116;10.818;2024-02-15T07:26:30;5.00;99.90
41985;DHT22;28319;48.116;10.818;2024-02-15T07:31:35;5.10;99.90
41985;DHT22;28319;48.116;10.818;2024-02-15T07:36:37;5.20;99.90
41985;DHT22;28319;48.116;10.818;2024-02-15T07:41:42;5.20;99.90
41985;DHT22;28319;48.116;10.818;2024-02-15T07:46:47;5.30;99.90
41985;DHT22;28319;48.116;10.818;2024-02-15T07:51:51;5.20;99.90
41985;DHT22;28319;48.116;10.818;2024-02-15T07:56:53;5.40;99.90
41985;DHT22;28319;48.116;10.818;2024-02-15T08:01:56;5.60;99.90
41985;DHT22;28319;48.116;10.818;2024-02-15T08:06:58;5.70;99.90
41985;DHT22;28319;48.116;10.818;2024-02-15T08:12:00;5.80;99.90
41985;DHT22;28319;48.116;10.818;2024-02-15T08:17:05;5.90;99.90
41985;DHT22;28319;48.116;10.818;2024-02-15T08:22:08;6.10;99.90
41985;DHT22;28319;48.116;10.818;2024-02-15T08:27:11;6.10;99.90
41985;DHT22;28319;48.116;10.818;2024-02-15T08:32:14;6.20;99.90
41985;DHT22;28319;48.116;10.818;2024-02-15T08:37:16;6.30;99.90
41985;DHT22;28319;48.116;10.818;2024-02-15T08:42:19;6.50;99.90
41985;DHT22;28319;48.116;10.818;2024-02-15T08:47:24;6.60;99.90
41985;DHT22;28319;48.116;10.818;2024-02-15T08:52:26;6.80;99.90
41985;DHT22;28319;48.116;10.818;2024-02-15T08:57:27;6.90;99.90
41985;DHT22;28319;48.116;10.818;2024-02-15T09:02:31;7.10;99.90
41985;DHT22;28319;48.116;10.818;2024-02-15T09:07:33;7.30;99.90
41985;DHT22;28319;48.116;10.818;2024-02-15T09:12:37;7.50;99.90
41985;DHT22;28319;48.116;10.818;2024-02-15T09:17:41;7.80;99.90
41985;DHT22;28319;48.116;10.818;2024-02-15T09:22:48;8.10;99.90
41985;DHT22;28319;48.116;10.818;2024-02-15T09:27:51;8.40;99.90
41985;DHT22;28319;48.116;10.818;2024-02-15T09:32:55;8.70;99.90
41985;DHT22;28319;48.116;10.818;2024-02-15T09:37:58;9.20;99.90
41985;DHT22;28319;48.116;10.818;2024-02-15T09:43:00;9.60;99.90
41985;DHT22;28319;48.116;10.818;2024-02-15T09:48:06;9.90;99.90
41985;DHT22;28319;48.116;10.818;2024-02-15T09:53:09;10.30;99.90
41985;DHT22;28319;48.116;10.818;2024-02-15T09:58:11;10.70;99.90
41985;DHT22;28319;48.116;10.818;2024-02-15T10:03:18;11.00;99.90
41985;DHT22;28319;48.116;10.818;2024-02-15T10:08:20;11.30;99.90
41985;DHT22;28319;48.116;10.818;2024-02-15T10:13:23;11.70;99.90
41985;DHT22;28319;48.116;10.818;2024-02-15T10:18:27;11.90;99.90
41985;DHT22;28319;48.116;10.818;2024-02-15T10:23:28;12.00;99.90
41985;DHT22;28319;48.116;10.818;2024-02-15T10:28:30;12.20;99.90
41985;DHT22;28319;48.116;10.818;2024-02-15T10:33:34;12.30;99.90
41985;DHT22;28319;48.116;10.818;2024-02-15T10:38:36;12.50;99.90
41985;DHT22;28319;48.116;10.818;2024-02-15T10:43:39;12.70;99.90
41985;DHT22;28319;48.116;10.818;2024-02-15T10:48:46;12.70;99.90
41985;DHT22;28319;48.116;10.818;2024-02-15T10:53:57;13.00;99.90
41985;DHT22;28319;48.116;10.818;2024-02-15T10:59:03;13.20;99.90
41985;DHT22;28319;48.116;10.818;2024-02-15T11:04:14;13.20;99.90
41985;DHT22;28319;48.116;10.818;2024-02-15T11:09:16;13.40;99.90
41985;DHT22;28319;48.116;10.818;2024-02-15T11:14:23;13.70;99.90
41985;DHT22;28319;48.116;10.818;2024-02-15T11:19:43;13.30;99.90
41985;DHT22;28319;48.116;10.818;2024-02-15T11:24:49;13.20;99.90
41985;DHT22;28319;48.116;10.818;2024-02-15T11:29:52;13.40;99.90
41985;DHT22;28319;48.116;10.818;2024-02-15T11:35:04;13.80;99.90
41985;DHT22;28319;48.116;10.818;2024-02-15T11:40:11;14.10;99.90
41985;DHT22;28319;48.116;10.818;2024-02-15T11:45:15;14.00;99.90
41985;DHT22;28319;48.116;10.818;2024-02-15T11:50:22;13.80;99.90
41985;DHT22;28319;48.116;10.818;2024-02-15T11:55:24;13.70;99.90
41985;DHT22;28319;48.116;10.818;2024-02-15T12:00:26;13.60;99.90
41985;DHT22;28319;48.116;10.818;2024-02-15T12:05:48;13.70;99.90
41985;DHT22;28319;48.116;10.818;2024-02-15T12:11:08;13.70;99.90
41985;DHT22;28319;48.116;10.818;2024-02-15T12:16:27;13.80;99.90
41985;DHT22;28319;48.116;10.818;2024-02-15T12:21:49;14.10;99.90
41985;DHT22;28319;48.116;10.818;2024-02-15T12:26:51;14.60;99.70
41985;DHT22;28319;48.116;10.818;2024-02-15T12:31:53;15.00;98.90
41985;DHT22;28319;48.116;10.818;2024-02-15T12:37:06;15.10;98.20
41985;DHT22;28319;48.116;10.818;2024-02-15T12:42:09;15.20;97.30
41985;DHT22;28319;48.116;10.818;2024-02-15T12:47:20;15.40;96.90
41985;DHT22;28319;48.116;10.818;2024-02-15T12:52:37;15.40;95.50
41985;DHT22;28319;48.116;10.818;2024-02-15T12:57:40;15.40;95.90
41985;DHT22;28319;48.116;10.818;2024-02-15T13:02:46;15.60;95.60
41985;DHT22;28319;48.116;10.818;2024-02-15T13:07:51;15.60;95.40
41985;DHT22;28319;48.116;10.818;2024-02-15T13:12:53;15.80;96.00
41985;DHT22;28319;48.116;10.818;2024-02-15T13:17:56;15.90;96.10
41985;DHT22;28319;48.116;10.818;2024-02-15T13:23:00;16.00;96.60
41985;DHT22;28319;48.116;10.818;2024-02-15T13:28:09;15.60;95.80
41985;DHT22;28319;48.116;10.818;2024-02-15T13:33:13;15.50;95.80
41985;DHT22;28319;48.116;10.818;2024-02-15T13:38:17;15.60;96.10
41985;DHT22;28319;48.116;10.818;2024-02-15T13:43:23;15.80;96.40
41985;DHT22;28319;48.116;10.818;2024-02-15T13:48:25;15.90;96.50
41985;DHT22;28319;48.116;10.818;2024-02-15T13:53:31;15.70;95.90
41985;DHT22;28319;48.116;10.818;2024-02-15T13:58:35;15.60;95.60
41985;DHT22;28319;48.116;10.818;2024-02-15T14:03:37;15.40;96.20
41985;DHT22;28319;48.116;10.818;2024-02-15T14:08:40;15.40;96.00
41985;DHT22;28319;48.116;10.818;2024-02-15T14:13:42;15.60;96.00
41985;DHT22;28319;48.116;10.818;2024-02-15T14:18:44;15.60;95.90
41985;DHT22;28319;48.116;10.818;2024-02-15T14:23:47;15.30;95.50
41985;DHT22;28319;48.116;10.818;2024-02-15T14:28:49;15.30;96.10
41985;DHT22;28319;48.116;10.818;2024-02-15T14:33:51;15.30;96.00
41985;DHT22;28319;48.116;10.818;2024-02-15T14:38:55;15.20;96.50
41985;DHT22;28319;48.116;10.818;2024-02-15T14:43:57;15.10;96.40
41985;DHT22;28319;48.116;10.818;2024-02-15T14:48:58;15.00;96.00
41985;DHT22;28319;48.116;10.818;2024-02-15T14:54:02;14.90;96.30
41985;DHT22;28319;48.116;10.818;2024-02-15T14:59:04;14.90;96.40
41985;DHT22;28319;48.116;10.818;2024-02-15T15:04:06;14.80;97.20
41985;DHT22;28319;48.116;10.818;2024-02-15T15:09:12;14.60;96.80
41985;DHT22;28319;48.116;10.818;2024-02-15T15:14:31;14.50;96.60
41985;DHT22;28319;48.116;10.818;2024-02-15T15:19:33;14.40;97.20
41985;DHT22;28319;48.116;10.818;2024-02-15T15:24:38;14.30;97.50
41985;DHT22;28319;48.116;10.818;2024-02-15T15:29:41;14.30;98.10
41985;DHT22;28319;48.116;10.818;2024-02-15T15:34:43;14.30;97.50
41985;DHT22;28319;48.116;10.818;2024-02-15T15:39:47;14.30;99.20
41985;DHT22;28319;48.116;10.818;2024-02-15T15:44:48;14.20;99.70
41985;DHT22;28319;48.116;10.818;2024-02-15T15:49:51;14.30;99.90
41985;DHT22;28319;48.116;10.818;2024-02-15T15:54:57;14.20;99.90
41985;DHT22;28319;48.116;10.818;2024-02-15T15:59:59;14.30;99.90
41985;DHT22;28319;48.116;10.818;2024-02-15T16:05:01;14.30;99.90
41985;DHT22;28319;48.116;10.818;2024-02-15T16:10:06;14.20;99.20
41985;DHT22;28319;48.116;10.818;2024-02-15T16:15:09;14.10;99.80
41985;DHT22;28319;48.116;10.818;2024-02-15T16:20:14;14.10;99.90
41985;DHT22;28319;48.116;10.818;2024-02-15T16:25:17;14.20;99.90
41985;DHT22;28319;48.116;10.818;2024-02-15T16:30:19;14.00;99.90
41985;DHT22;28319;48.116;10.818;2024-02-15T16:35:21;13.90;99.90
41985;DHT22;28319;48.116;10.818;2024-02-15T16:40:24;14.00;99.90
41985;DHT22;28319;48.116;10.818;2024-02-15T16:45:28;14.00;99.90
41985;DHT22;28319;48.116;10.818;2024-02-15T16:50:31;13.90;99.90
41985;DHT22;28319;48.116;10.818;2024-02-15T16:55:36;13.80;99.90
41985;DHT22;28319;48.116;10.818;2024-02-15T17:00:38;13.70;99.90
41985;DHT22;28319;48.116;10.818;2024-02-15T17:05:40;13.40;99.90
41985;DHT22;28319;48.116;10.818;2024-02-15T17:10:43;13.20;99.90
41985;DHT22;28319;48.116;10.818;2024-02-15T17:15:45;13.00;99.90
41985;DHT22;28319;48.116;10.818;2024-02-15T17:20:47;12.90;99.90
41985;DHT22;28319;48.116;10.818;2024-02-15T17:25:50;12.80;99.90
41985;DHT22;28319;48.116;10.818;2024-02-15T17:30:52;12.60;99.90
41985;DHT22;28319;48.116;10.818;2024-02-15T17:35:55;12.50;99.90
41985;DHT22;28319;48.116;10.818;2024-02-15T17:40:58;12.50;99.90
41985;DHT22;28319;48.116;10.818;2024-02-15T17:46:00;12.50;99.90
41985;DHT22;28319;48.116;10.818;2024-02-15T17:51:05;12.50;99.90
41985;DHT22;28319;48.116;10.818;2024-02-15T17:56:08;12.40;99.90
41985;DHT22;28319;48.116;10.818;2024-02-15T18:01:14;12.30;99.90
41985;DHT22;28319;48.116;10.818;2024-02-15T18:06:16;12.10;99.90
41985;DHT22;28319;48.116;10.818;2024-02-15T18:11:20;11.90;99.90
41985;DHT22;28319;48.116;10.818;2024-02-15T18:16:22;11.80;99.90
41985;DHT22;28319;48.116;10.818;2024-02-15T18:21:23;11.70;99.90
41985;DHT22;28319;48.116;10.818;2024-02-15T18:26:28;11.70;99.90
41985;DHT22;28319;48.116;10.818;2024-02-15T18:31:30;11.50;99.90
41985;DHT22;28319;48.116;10.818;2024-02-15T18:36:35;11.30;99.90
41985;DHT22;28319;48.116;10.818;2024-02-15T18:41:39;11.10;99.90
41985;DHT22;28319;48.116;10.818;2024-02-15T18:46:42;11.00;99.90
41985;DHT22;28319;48.116;10.818;2024-02-15T18:51:45;10.90;99.90
41985;DHT22;28319;48.116;10.818;2024-02-15T18:56:48;10.70;99.90
41985;DHT22;28319;48.116;10.818;2024-02-15T19:01:56;10.50;99.90
41985;DHT22;28319;48.116;10.818;2024-02-15T19:07:00;10.60;99.90
41985;DHT22;28319;48.116;10.818;2024-02-15T19:12:06;10.40;99.90
41985;DHT22;28319;48.116;10.818;2024-02-15T19:17:08;10.40;99.90
41985;DHT22;28319;48.116;10.818;2024-02-15T19:22:10;10.40;99.90
41985;DHT22;28319;48.116;10.818;2024-02-15T19:27:14;10.40;99.90
41985;DHT22;28319;48.116;10.818;2024-02-15T19:32:16;10.40;99.90
41985;DHT22;28319;48.116;10.818;2024-02-15T19:37:18;10.30;99.90
41985;DHT22;28319;48.116;10.818;2024-02-15T19:42:21;10.30;99.90
41985;DHT22;28319;48.116;10.818;2024-02-15T19:47:23;10.30;99.90
41985;DHT22;28319;48.116;10.818;2024-02-15T19:52:25;10.20;99.90
41985;DHT22;28319;48.116;10.818;2024-02-15T19:57:29;10.10;99.90
41985;DHT22;28319;48.116;10.818;2024-02-15T20:02:31;10.10;99.90
41985;DHT22;28319;48.116;10.818;2024-02-15T20:07:33;9.90;99.90
41985;DHT22;28319;48.116;10.818;2024-02-15T20:12:39;9.80;99.90
41985;DHT22;28319;48.116;10.818;2024-02-15T20:17:41;9.70;99.90
41985;DHT22;28319;48.116;10.818;2024-02-15T20:22:44;9.60;99.90
41985;DHT22;28319;48.116;10.818;2024-02-15T20:27:48;9.50;99.90
41985;DHT22;28319;48.116;10.818;2024-02-15T20:32:50;9.40;99.90
41985;DHT22;28319;48.116;10.818;2024-02-15T20:37:54;9.40;99.90
41985;DHT22;28319;48.116;10.818;2024-02-15T20:42:57;9.30;99.90
41985;DHT22;28319;48.116;10.818;2024-02-15T20:47:59;9.20;99.90
41985;DHT22;28319;48.116;10.818;2024-02-15T20:53:02;9.20;99.90
41985;DHT22;28319;48.116;10.818;2024-02-15T20:58:06;9.10;99.90
41985;DHT22;28319;48.116;10.818;2024-02-15T21:03:08;9.00;99.90
41985;DHT22;28319;48.116;10.818;2024-02-15T21:08:10;9.00;99.90
41985;DHT22;28319;48.116;10.818;2024-02-15T21:13:14;8.90;99.90
41985;DHT22;28319;48.116;10.818;2024-02-15T21:18:16;8.70;99.90
41985;DHT22;28319;48.116;10.818;2024-02-15T21:23:18;8.60;99.90
41985;DHT22;28319;48.116;10.818;2024-02-15T21:28:23;8.50;99.90
41985;DHT22;28319;48.116;10.818;2024-02-15T21:33:25;8.40;99.90
41985;DHT22;28319;48.116;10.818;2024-02-15T21:38:26;8.40;99.90
41985;DHT22;28319;48.116;10.818;2024-02-15T21:43:30;8.30;99.90
41985;DHT22;28319;48.116;10.818;2024-02-15T21:48:32;8.30;99.90
41985;DHT22;28319;48.116;10.818;2024-02-15T21:53:34;8.20;99.90
41985;DHT22;28319;48.116;10.818;2024-02-15T21:58:37;8.10;99.90
41985;DHT22;28319;48.116;10.818;2024-02-15T22:03:40;8.10;99.90
41985;DHT22;28319;48.116;10.818;2024-02-15T22:08:43;7.90;99.90
41985;DHT22;28319;48.116;10.818;2024-02-15T22:13:47;7.90;99.90
41985;DHT22;28319;48.116;10.818;2024-02-15T22:18:49;7.80;99.90
41985;DHT22;28319;48.116;10.818;2024-02-15T22:23:51;7.80;99.90
41985;DHT22;28319;48.116;10.818;2024-02-15T22:28:54;7.60;99.90
41985;DHT22;28319;48.116;10.818;2024-02-15T22:33:57;7.60;99.90
41985;DHT22;28319;48.116;10.818;2024-02-15T22:38:58;7.50;99.90
41985;DHT22;28319;48.116;10.818;2024-02-15T22:44:02;7.50;99.90
41985;DHT22;28319;48.116;10.818;2024-02-15T22:49:04;7.40;99.90
41985;DHT22;28319;48.116;10.818;2024-02-15T22:54:06;7.30;99.90
41985;DHT22;28319;48.116;10.818;2024-02-15T22:59:09;7.20;99.90
41985;DHT22;28319;48.116;10.818;2024-02-15T23:04:12;7.20;99.90
41985;DHT22;28319;48.116;10.818;2024-02-15T23:09:15;7.10;99.90
41985;DHT22;28319;48.116;10.818;2024-02-15T23:14:18;7.20;99.90
41985;DHT22;28319;48.116;10.818;2024-02-15T23:19:21;7.10;99.90
41985;DHT22;28319;48.116;10.818;2024-02-15T23:24:23;7.10;99.90
41985;DHT22;28319;48.116;10.818;2024-02-15T23:29:29;7.20;99.90
41985;DHT22;28319;48.116;10.818;2024-02-15T23:34:31;7.10;99.90
41985;DHT22;28319;48.116;10.818;2024-02-15T23:39:33;7.10;99.90
41985;DHT22;28319;48.116;10.818;2024-02-15T23:45:02;7.10;99.90
41985;DHT22;28319;48.116;10.818;2024-02-15T23:50:05;7.10;99.90
41985;DHT22;28319;48.116;10.818;2024-02-15T23:55:08;7.20;99.90
